Maidstone, Vermont
Current Conditions -  °F | °C
As of 4:15 PM on Saturday 22 Nov 2014 (Local Time) from KCDA Reporting Station
Overcast Overcast  
Wind Chill: 24°   Ceiling: 3700
Heat Index: 31°   Visibility: 10mi
Dew Point: 10°   Wind: 8mph
Humidity: 40%   Direction: 140°SE
Pressure: 29.97"   Gusts: NA
Location:  44.7348°N, 71.6296°W
Report Text: KCDA 222115Z AUTO 14007KT 10SM OVC037 00/M12 A2997 RMK AO2 T10031125
Loading
Personal Weather Stations






























Interactive Weather Map New forecast layout! Learn more

10-Day Weather Forecast

Advertisements
Track Severe Weather on mobile